Sable Island, Canada
Current Conditions -  °F | °C
As of 8:10 PM on Wednesday 28 Jan 2015 (Local Time) from CESA Reporting Station
Drizzle Drizzle  
Wind Chill: 32°   Ceiling: Unl
Heat Index: 40°   Visibility: 1.5mi
Dew Point: 38°   Wind: 14mph
Humidity: 93%   Direction: 250°WSW
Pressure: 29.78"   Gusts: NA
Location:  43.95°N, 59.85°W
Report Text: CESA 290010Z AUTO 25012KT 1 1/2SM -DZ NSC 04/03 A2978 RMK PK WND 23019/// T00450034 WSI/SWOB
Loading
Personal Weather Stations






























Interactive Weather Map New forecast layout! Learn more

10-Day Weather Forecast

Advertisements
Track Severe Weather on mobile